Time;durP1;ratioP1;P1;durP2;ratioP2;P2;SDS_P1;SDS_P2;PMS_P1;PMS_P2;Temp;Humidity;BMP_temperature;BMP_pressure;BME280_temperature;BME280_humidity;BME280_pressure;Samples;Min_cycle;Max_cycle;Signal;HPM_P1;HPM_P2
2021/04/08 00:00:07;;;;;;;8.90;5.53;;;1.50;99.90;;;;;;5057036;28;20213;-66
2021/04/08 00:02:34;;;;;;;10.83;5.73;;;1.50;99.90;;;;;;5061691;28;20246;-67
2021/04/08 00:05:00;;;;;;;10.37;5.70;;;1.50;99.90;;;;;;5055549;28;20724;-68
2021/04/08 00:07:28;;;;;;;9.33;5.73;;;1.60;99.90;;;;;;5054354;28;20238;-68
2021/04/08 00:09:55;;;;;;;10.97;5.87;;;1.50;99.90;;;;;;5054527;28;20213;-67
2021/04/08 00:12:21;;;;;;;13.03;5.87;;;1.50;99.90;;;;;;5058002;28;20225;-66
2021/04/08 00:14:47;;;;;;;11.00;5.67;;;1.50;99.90;;;;;;5053693;28;20241;-67
2021/04/08 00:17:14;;;;;;;11.03;6.13;;;1.40;99.90;;;;;;5059301;28;20275;-67
2021/04/08 00:19:40;;;;;;;12.93;6.27;;;1.50;99.90;;;;;;5054823;28;20202;-68
2021/04/08 00:22:06;;;;;;;9.27;5.27;;;1.50;99.90;;;;;;5061478;28;20296;-66
2021/04/08 00:24:34;;;;;;;11.97;6.00;;;1.50;99.90;;;;;;5054526;28;20213;-68
2021/04/08 00:27:00;;;;;;;13.87;5.50;;;1.50;99.90;;;;;;5058360;28;20268;-67
2021/04/08 00:29:26;;;;;;;10.43;5.97;;;1.50;99.90;;;;;;5056136;28;20222;-67
2021/04/08 00:31:53;;;;;;;11.43;6.57;;;1.50;99.90;;;;;;5054666;28;20205;-67
2021/04/08 00:34:19;;;;;;;10.83;6.07;;;1.50;99.90;;;;;;5053014;28;20305;-67
2021/04/08 00:36:45;;;;;;;12.40;6.00;;;1.50;99.90;;;;;;5059384;28;20209;-68
2021/04/08 00:39:12;;;;;;;11.73;5.60;;;1.50;99.90;;;;;;5057168;28;20194;-67
2021/04/08 00:41:40;;;;;;;8.97;5.40;;;1.50;99.90;;;;;;5054849;28;20206;-68
2021/04/08 00:44:07;;;;;;;12.80;6.07;;;1.50;99.90;;;;;;5062285;28;20643;-67
2021/04/08 00:46:33;;;;;;;14.53;5.57;;;1.50;99.90;;;;;;5059509;28;20515;-66
2021/04/08 00:48:59;;;;;;;10.73;5.27;;;1.50;99.90;;;;;;5053651;28;20313;-66
2021/04/08 00:51:27;;;;;;;12.60;6.23;;;1.60;99.90;;;;;;5054248;28;20289;-67
2021/04/08 00:53:55;;;;;;;12.83;5.97;;;1.60;99.90;;;;;;5058747;28;20214;-66
2021/04/08 00:56:22;;;;;;;12.10;6.17;;;1.60;99.90;;;;;;5061868;28;20896;-67
2021/04/08 00:58:50;;;;;;;12.20;6.97;;;1.60;99.90;;;;;;5058153;28;20202;-67
2021/04/08 01:01:17;;;;;;;12.57;6.87;;;1.70;99.90;;;;;;5061259;28;20225;-66
2021/04/08 01:03:44;;;;;;;10.60;6.47;;;1.70;99.90;;;;;;5059670;28;20205;-67
2021/04/08 01:06:11;;;;;;;12.97;7.40;;;1.70;99.90;;;;;;5056877;28;20321;-67
2021/04/08 01:08:37;;;;;;;14.50;8.83;;;1.70;99.90;;;;;;5059681;28;20213;-67
2021/04/08 01:11:04;;;;;;;10.90;7.23;;;1.60;99.90;;;;;;5061118;28;20304;-66
2021/04/08 01:13:34;;;;;;;14.13;8.20;;;1.80;99.90;;;;;;5061037;28;20690;-67
2021/04/08 01:16:05;;;;;;;14.03;7.23;;;1.80;99.90;;;;;;5064242;28;20725;-67
2021/04/08 01:18:42;;;;;;;11.77;7.30;;;1.80;99.90;;;;;;5049702;28;20203;-67
2021/04/08 01:21:12;;;;;;;16.40;7.33;;;1.90;99.90;;;;;;5055535;28;20295;-67
2021/04/08 01:24:10;;;;;;;14.20;6.50;;;1.90;99.90;;;;;;5054405;28;20289;-67
2021/04/08 01:27:19;;;;;;;11.57;6.53;;;1.90;99.90;;;;;;5056224;28;20198;-66
2021/04/08 01:30:03;;;;;;;12.50;6.00;;;2.00;99.90;;;;;;5060511;28;20572;-67
2021/04/08 01:32:34;;;;;;;10.37;6.03;;;2.00;99.90;;;;;;5055593;28;20198;-67
2021/04/08 01:35:03;;;;;;;12.33;6.43;;;2.10;99.90;;;;;;5059094;28;20266;-66
2021/04/08 01:37:47;;;;;;;11.97;6.27;;;2.10;99.90;;;;;;5060113;28;20201;-67
2021/04/08 01:40:15;;;;;;;11.07;5.60;;;2.20;99.90;;;;;;5056820;28;20587;-68
2021/04/08 01:42:45;;;;;;;10.60;6.13;;;2.20;99.90;;;;;;5057300;28;20667;-67
2021/04/08 01:45:13;;;;;;;11.67;6.27;;;2.20;99.90;;;;;;5056753;28;20202;-67
2021/04/08 01:47:43;;;;;;;10.60;5.90;;;2.30;99.90;;;;;;5063843;28;20288;-66
2021/04/08 01:50:12;;;;;;;12.53;6.77;;;2.30;99.90;;;;;;5054378;28;20220;-66
2021/04/08 01:52:42;;;;;;;11.40;6.40;;;2.20;99.90;;;;;;5061495;28;20202;-67
2021/04/08 01:55:10;;;;;;;12.50;6.70;;;2.20;99.90;;;;;;5057319;28;20247;-67
2021/04/08 01:57:38;;;;;;;10.70;6.60;;;2.30;99.90;;;;;;5060251;28;20822;-66
2021/04/08 02:00:07;;;;;;;11.77;6.17;;;2.30;99.90;;;;;;5054766;28;20213;-67
2021/04/08 02:02:35;;;;;;;13.07;5.90;;;2.30;99.90;;;;;;5059676;28;20647;-67
2021/04/08 02:05:06;;;;;;;10.77;6.63;;;2.20;99.90;;;;;;5055212;28;20566;-66
2021/04/08 02:07:33;;;;;;;9.97;5.93;;;2.30;99.90;;;;;;5057271;28;20206;-67
2021/04/08 02:10:00;;;;;;;13.10;6.43;;;2.30;99.90;;;;;;5058040;28;20288;-66
2021/04/08 02:12:27;;;;;;;7.83;5.67;;;2.30;99.90;;;;;;5058167;28;20198;-67
2021/04/08 02:14:54;;;;;;;11.07;5.87;;;2.30;99.90;;;;;;5052949;28;20241;-67
2021/04/08 02:17:22;;;;;;;10.93;6.57;;;2.30;99.90;;;;;;5053558;28;20206;-67
2021/04/08 02:19:49;;;;;;;10.23;5.90;;;2.30;99.90;;;;;;5057742;28;20198;-66
2021/04/08 02:22:19;;;;;;;12.57;6.80;;;2.30;99.90;;;;;;5056904;28;20655;-66
2021/04/08 02:24:46;;;;;;;13.90;6.67;;;2.30;99.90;;;;;;5053071;28;20289;-66
2021/04/08 02:27:13;;;;;;;9.60;6.97;;;2.30;99.90;;;;;;5049484;28;20293;-67
2021/04/08 02:29:40;;;;;;;13.40;6.57;;;2.40;99.90;;;;;;5052380;28;20646;-66
2021/04/08 02:32:08;;;;;;;11.70;6.60;;;2.40;99.90;;;;;;5055154;28;20202;-66
2021/04/08 02:34:35;;;;;;;11.87;7.20;;;2.40;99.90;;;;;;5058094;28;20209;-67
2021/04/08 02:37:01;;;;;;;11.03;6.93;;;2.40;99.90;;;;;;5056089;28;20210;-67
2021/04/08 02:39:29;;;;;;;13.23;7.13;;;2.40;99.90;;;;;;5054788;28;20214;-67
2021/04/08 02:41:55;;;;;;;13.30;7.40;;;2.40;99.90;;;;;;5053819;28;20209;-67
2021/04/08 02:44:22;;;;;;;13.60;7.87;;;2.50;99.90;;;;;;5055361;28;20639;-67
2021/04/08 02:46:48;;;;;;;12.13;8.83;;;2.50;99.90;;;;;;5056491;28;20760;-67
2021/04/08 02:49:15;;;;;;;15.23;8.23;;;2.50;99.90;;;;;;5058721;28;20641;-66
2021/04/08 02:51:45;;;;;;;13.77;8.93;;;2.50;99.90;;;;;;5050751;28;20335;-67
2021/04/08 02:54:19;;;;;;;12.47;8.37;;;2.60;99.90;;;;;;5055513;28;20206;-67
2021/04/08 02:56:51;;;;;;;14.07;8.87;;;2.60;99.90;;;;;;5052937;28;20293;-67
2021/04/08 02:59:23;;;;;;;12.97;8.23;;;2.60;99.90;;;;;;5051080;28;20226;-66
2021/04/08 03:01:53;;;;;;;11.07;7.63;;;2.60;99.90;;;;;;5055100;28;20678;-66
2021/04/08 03:04:21;;;;;;;15.93;8.63;;;2.50;99.90;;;;;;5051990;28;20255;-65
2021/04/08 03:06:49;;;;;;;12.47;7.67;;;2.60;99.90;;;;;;5052072;28;20205;-66
2021/04/08 03:09:19;;;;;;;13.87;7.83;;;2.60;99.90;;;;;;5053495;28;20237;-67
2021/04/08 03:11:50;;;;;;;12.67;7.90;;;2.60;99.90;;;;;;5053729;28;20273;-68
2021/04/08 03:14:20;;;;;;;11.23;7.20;;;2.60;99.90;;;;;;5052275;28;20222;-66
2021/04/08 03:16:49;;;;;;;14.13;7.70;;;2.70;99.90;;;;;;5054188;28;20202;-68
2021/04/08 03:19:21;;;;;;;11.43;7.80;;;2.70;99.90;;;;;;5054422;28;20197;-66
2021/04/08 03:21:49;;;;;;;13.33;8.37;;;2.60;99.90;;;;;;5053097;28;20401;-68
2021/04/08 03:24:16;;;;;;;15.27;8.13;;;2.60;99.90;;;;;;5052607;28;20221;-68
2021/04/08 03:26:44;;;;;;;11.30;7.73;;;2.60;99.90;;;;;;5056122;28;20297;-67
2021/04/08 03:29:13;;;;;;;12.43;8.13;;;2.50;99.90;;;;;;5053732;28;20217;-66
2021/04/08 03:31:41;;;;;;;12.13;8.00;;;2.60;99.90;;;;;;5051022;28;20214;-68
2021/04/08 03:34:08;;;;;;;13.03;7.93;;;2.50;99.90;;;;;;5050117;28;20214;-66
2021/04/08 03:36:36;;;;;;;15.90;7.83;;;2.50;99.90;;;;;;5058887;28;20666;-67
2021/04/08 03:39:02;;;;;;;11.93;7.83;;;2.40;99.90;;;;;;5054361;28;20210;-66
2021/04/08 03:41:29;;;;;;;12.50;8.20;;;2.50;99.90;;;;;;5055873;28;20218;-67
2021/04/08 03:43:56;;;;;;;13.57;7.80;;;2.50;99.90;;;;;;5052978;28;20212;-67
2021/04/08 03:46:24;;;;;;;16.40;7.93;;;2.50;99.90;;;;;;5054344;28;20212;-67
2021/04/08 03:48:51;;;;;;;11.53;7.77;;;2.50;99.90;;;;;;5055298;28;20242;-68
2021/04/08 03:51:21;;;;;;;17.40;8.10;;;2.50;99.90;;;;;;5053773;28;20214;-66
2021/04/08 03:53:49;;;;;;;14.43;7.90;;;2.50;99.90;;;;;;5055878;28;20634;-66
2021/04/08 03:56:16;;;;;;;16.27;8.13;;;2.50;99.90;;;;;;5054265;28;20214;-67
2021/04/08 03:58:43;;;;;;;14.87;8.23;;;2.40;99.90;;;;;;5054544;28;20198;-66
2021/04/08 04:01:10;;;;;;;12.73;8.23;;;2.50;99.90;;;;;;5051724;28;20643;-66
2021/04/08 04:03:38;;;;;;;16.53;8.47;;;2.50;99.90;;;;;;5051415;28;20201;-66
2021/04/08 04:06:08;;;;;;;15.03;7.77;;;2.50;99.90;;;;;;5057362;28;20649;-66
2021/04/08 04:08:35;;;;;;;13.30;8.10;;;2.50;99.90;;;;;;5057815;28;20230;-66
2021/04/08 04:11:01;;;;;;;13.50;8.07;;;2.60;99.90;;;;;;5056989;28;20292;-67
2021/04/08 04:13:30;;;;;;;12.53;8.10;;;2.60;99.90;;;;;;5056399;28;20226;-68
2021/04/08 04:15:58;;;;;;;14.37;8.87;;;2.60;99.90;;;;;;5054243;28;20715;-66
2021/04/08 04:18:24;;;;;;;14.13;8.83;;;2.60;99.90;;;;;;5059510;28;20290;-66
2021/04/08 04:20:52;;;;;;;10.63;8.17;;;2.60;99.90;;;;;;5059923;28;20666;-66
2021/04/08 04:23:18;;;;;;;13.80;8.63;;;2.60;99.90;;;;;;5056441;28;20255;-67
2021/04/08 04:25:44;;;;;;;16.20;8.33;;;2.60;99.90;;;;;;5056698;28;20296;-67
2021/04/08 04:28:10;;;;;;;13.03;9.03;;;2.70;99.90;;;;;;5057221;28;20226;-66
2021/04/08 04:30:37;;;;;;;16.43;9.20;;;2.70;99.90;;;;;;5053377;28;20210;-68
2021/04/08 04:33:03;;;;;;;14.63;9.10;;;2.70;99.90;;;;;;5059247;28;20304;-68
2021/04/08 04:35:30;;;;;;;14.73;9.90;;;2.80;99.90;;;;;;5053263;28;20214;-66
2021/04/08 04:37:57;;;;;;;13.10;8.97;;;2.80;99.90;;;;;;5056609;28;20689;-67
2021/04/08 04:40:23;;;;;;;14.17;8.63;;;2.70;99.90;;;;;;5057491;28;20210;-67
2021/04/08 04:42:50;;;;;;;12.77;9.20;;;2.80;99.90;;;;;;5055609;28;20233;-67
2021/04/08 04:45:16;;;;;;;14.23;9.70;;;2.80;99.90;;;;;;5057054;28;20277;-66
2021/04/08 04:47:43;;;;;;;14.20;9.63;;;2.80;99.90;;;;;;5058114;28;20827;-67
2021/04/08 04:50:12;;;;;;;14.20;9.20;;;2.80;99.90;;;;;;5055603;28;20639;-67
2021/04/08 04:52:38;;;;;;;14.80;9.83;;;2.80;99.90;;;;;;5051940;28;20561;-68
2021/04/08 04:55:07;;;;;;;13.43;9.03;;;2.90;99.90;;;;;;5056160;28;20210;-67
2021/04/08 04:57:34;;;;;;;13.87;8.90;;;2.80;99.90;;;;;;5056321;28;20622;-66
2021/04/08 05:00:00;;;;;;;16.57;9.63;;;2.90;99.90;;;;;;5053328;28;20208;-67
2021/04/08 05:02:27;;;;;;;14.57;9.47;;;2.80;99.90;;;;;;5050418;28;20213;-66
2021/04/08 05:04:53;;;;;;;14.37;9.40;;;2.90;99.90;;;;;;5054284;28;20210;-66
2021/04/08 05:07:19;;;;;;;14.43;9.37;;;2.90;99.90;;;;;;5057311;28;20204;-66
2021/04/08 05:09:46;;;;;;;13.60;9.33;;;2.90;99.90;;;;;;5057459;28;20540;-66
2021/04/08 05:12:13;;;;;;;15.07;10.37;;;2.90;99.90;;;;;;5054586;28;20572;-66
2021/04/08 05:14:39;;;;;;;14.60;9.30;;;2.90;99.90;;;;;;5055287;28;20280;-65
2021/04/08 05:17:06;;;;;;;16.80;10.40;;;2.90;99.90;;;;;;5057262;28;20198;-66
2021/04/08 05:19:32;;;;;;;14.43;9.60;;;3.00;99.90;;;;;;5057140;28;20208;-67
2021/04/08 05:21:59;;;;;;;17.43;10.23;;;3.00;99.90;;;;;;5053759;28;20220;-66
2021/04/08 05:24:25;;;;;;;16.83;10.00;;;3.00;99.90;;;;;;5054822;28;20210;-65
2021/04/08 05:26:51;;;;;;;17.37;9.97;;;3.00;99.90;;;;;;5056781;28;20205;-65
2021/04/08 05:29:19;;;;;;;15.13;9.97;;;3.00;99.90;;;;;;5052809;28;20224;-66
2021/04/08 05:31:45;;;;;;;17.03;10.77;;;3.00;99.90;;;;;;5056487;28;20293;-66
2021/04/08 05:34:11;;;;;;;15.50;10.00;;;3.00;99.90;;;;;;5054862;28;20364;-65
2021/04/08 05:36:38;;;;;;;17.03;9.50;;;3.00;99.90;;;;;;5052733;28;20289;-66
2021/04/08 05:39:05;;;;;;;14.53;9.90;;;3.00;99.90;;;;;;5058102;28;20329;-67
2021/04/08 05:41:31;;;;;;;14.77;10.20;;;3.00;99.90;;;;;;5057567;28;20217;-67
2021/04/08 05:43:58;;;;;;;16.37;10.97;;;3.00;99.90;;;;;;5057483;28;20285;-66
2021/04/08 05:46:25;;;;;;;14.03;9.57;;;3.10;99.90;;;;;;5053468;28;20221;-66
2021/04/08 05:48:51;;;;;;;15.67;10.67;;;3.10;99.90;;;;;;5056788;28;20226;-66
2021/04/08 05:51:18;;;;;;;16.33;11.43;;;3.00;99.90;;;;;;5058528;28;20244;-65
2021/04/08 05:53:44;;;;;;;17.47;11.67;;;3.10;99.90;;;;;;5060980;28;20289;-66
2021/04/08 05:56:10;;;;;;;15.03;10.97;;;3.00;99.90;;;;;;5057155;28;20206;-66
2021/04/08 05:58:37;;;;;;;16.30;10.87;;;3.00;99.90;;;;;;5059989;28;20665;-66
2021/04/08 06:01:07;;;;;;;16.63;10.53;;;3.10;99.90;;;;;;5049286;28;20242;-67
2021/04/08 06:03:34;;;;;;;19.57;11.23;;;3.10;99.90;;;;;;5049679;28;20289;-67
2021/04/08 06:06:00;;;;;;;16.03;11.60;;;3.10;99.90;;;;;;5052795;28;20259;-69
2021/04/08 06:08:27;;;;;;;17.67;11.13;;;3.10;99.90;;;;;;5053506;28;20218;-68
2021/04/08 06:10:53;;;;;;;16.43;11.23;;;3.10;99.90;;;;;;5056692;28;20649;-69
2021/04/08 06:13:20;;;;;;;14.87;10.83;;;3.00;99.90;;;;;;5059454;28;20543;-66
2021/04/08 06:15:46;;;;;;;15.23;11.27;;;3.00;99.90;;;;;;5056600;28;20328;-67
2021/04/08 06:18:12;;;;;;;16.43;11.40;;;3.00;99.90;;;;;;5054701;28;20247;-68
2021/04/08 06:20:40;;;;;;;16.87;11.57;;;3.00;99.90;;;;;;5055474;28;20301;-69
2021/04/08 06:23:06;;;;;;;15.60;11.60;;;3.10;99.90;;;;;;5052370;28;20621;-69
2021/04/08 06:25:34;;;;;;;15.17;11.40;;;3.00;99.90;;;;;;5054432;28;20230;-70
2021/04/08 06:28:00;;;;;;;16.13;11.70;;;3.00;99.90;;;;;;5053413;28;20251;-70
2021/04/08 06:30:27;;;;;;;17.10;11.50;;;3.00;99.90;;;;;;5054380;28;20316;-68
2021/04/08 06:32:54;;;;;;;16.37;12.10;;;3.00;99.90;;;;;;5054391;28;20667;-70
2021/04/08 06:35:21;;;;;;;18.70;12.57;;;3.00;99.90;;;;;;5054720;28;20293;-68
2021/04/08 06:37:50;;;;;;;18.43;12.20;;;3.00;99.90;;;;;;5050973;28;20217;-70
2021/04/08 06:40:19;;;;;;;16.00;12.03;;;3.00;99.90;;;;;;5053676;28;20569;-68
2021/04/08 06:42:47;;;;;;;17.03;12.90;;;3.00;99.90;;;;;;5048466;28;20245;-68
2021/04/08 06:45:16;;;;;;;17.33;13.07;;;3.00;99.90;;;;;;5059527;28;20292;-71
2021/04/08 06:47:51;;;;;;;21.27;13.70;;;3.00;99.90;;;;;;5053656;28;20736;-70
2021/04/08 06:50:22;;;;;;;19.67;13.90;;;3.00;99.90;;;;;;5053803;28;20770;-70
2021/04/08 06:52:51;;;;;;;19.97;14.13;;;3.00;99.90;;;;;;5050548;28;20224;-70
2021/04/08 06:55:19;;;;;;;21.20;14.13;;;3.10;99.90;;;;;;5048423;28;20206;-70
2021/04/08 06:57:46;;;;;;;20.73;13.20;;;3.10;99.90;;;;;;5050276;28;20245;-71
2021/04/08 07:00:15;;;;;;;21.90;14.10;;;3.10;99.90;;;;;;5054034;28;20232;-73
2021/04/08 07:02:41;;;;;;;23.67;16.00;;;3.10;99.90;;;;;;5053040;28;20245;-71
2021/04/08 07:05:09;;;;;;;18.60;13.63;;;3.10;99.90;;;;;;5053570;28;20206;-70
2021/04/08 07:07:35;;;;;;;20.80;14.80;;;3.20;99.90;;;;;;5053477;28;20746;-71
2021/04/08 07:10:03;;;;;;;21.20;14.30;;;3.20;99.90;;;;;;5053469;28;20256;-69
2021/04/08 07:12:30;;;;;;;21.60;15.03;;;3.20;99.90;;;;;;5054367;28;20208;-68
2021/04/08 07:14:57;;;;;;;20.30;13.93;;;3.30;99.90;;;;;;5063009;28;20241;-70
2021/04/08 07:17:24;;;;;;;19.50;14.47;;;3.40;99.90;;;;;;5057830;28;20306;-70
2021/04/08 07:19:50;;;;;;;17.37;14.10;;;3.40;99.90;;;;;;5053607;28;20234;-71
2021/04/08 07:22:18;;;;;;;19.13;13.90;;;3.40;99.90;;;;;;5054357;28;20629;-72
2021/04/08 07:24:46;;;;;;;19.27;14.33;;;3.40;99.90;;;;;;5052799;28;20202;-71
2021/04/08 07:27:18;;;;;;;20.47;14.27;;;3.50;99.90;;;;;;5051821;28;20206;-72
2021/04/08 07:29:47;;;;;;;20.73;14.93;;;3.50;99.90;;;;;;5054208;28;20665;-72
2021/04/08 07:32:14;;;;;;;20.77;14.70;;;3.60;99.90;;;;;;5053687;28;20256;-69
2021/04/08 07:34:44;;;;;;;20.43;14.97;;;3.60;99.90;;;;;;5051081;28;20378;-69
2021/04/08 07:37:11;;;;;;;19.07;13.80;;;3.70;99.90;;;;;;5051401;28;20301;-70
2021/04/08 07:39:39;;;;;;;20.77;14.97;;;3.80;99.90;;;;;;5052340;28;20201;-71
2021/04/08 07:42:09;;;;;;;19.70;15.07;;;3.90;99.90;;;;;;5054043;28;20290;-73
2021/04/08 07:44:48;;;;;;;21.53;15.10;;;4.00;99.90;;;;;;5054292;28;20292;-70
2021/04/08 07:47:22;;;;;;;20.60;14.87;;;4.10;99.90;;;;;;5060178;28;20284;-71
2021/04/08 07:49:50;;;;;;;20.60;14.30;;;4.30;99.90;;;;;;5056133;28;20733;-69
2021/04/08 07:52:19;;;;;;;23.10;17.03;;;4.50;99.90;;;;;;5056480;28;20229;-70
2021/04/08 07:55:07;;;;;;;19.40;14.47;;;4.70;99.90;;;;;;5054244;28;20659;-69
2021/04/08 07:57:53;;;;;;;18.13;13.30;;;4.90;99.90;;;;;;5056801;28;20626;-70
2021/04/08 08:00:23;;;;;;;18.23;13.47;;;5.00;99.90;;;;;;5052934;28;20623;-69
2021/04/08 08:02:51;;;;;;;20.67;14.97;;;5.20;99.90;;;;;;5055682;28;20237;-69
2021/04/08 08:05:21;;;;;;;19.87;15.00;;;5.40;99.90;;;;;;5056884;28;20255;-69
2021/04/08 08:07:48;;;;;;;15.63;12.33;;;5.60;99.90;;;;;;5047545;28;20229;-70
2021/04/08 08:10:25;;;;;;;16.37;12.43;;;5.80;99.90;;;;;;5056553;28;20690;-69
2021/04/08 08:12:53;;;;;;;16.60;11.90;;;5.90;99.90;;;;;;5062893;28;20244;-69
2021/04/08 08:15:23;;;;;;;17.53;12.93;;;5.90;99.90;;;;;;5048971;28;20281;-69
2021/04/08 08:17:50;;;;;;;15.30;11.63;;;5.90;99.90;;;;;;5053403;28;20341;-67
2021/04/08 08:20:18;;;;;;;15.07;11.53;;;6.00;99.90;;;;;;5055095;28;20255;-68
2021/04/08 08:22:45;;;;;;;16.03;11.77;;;6.00;99.90;;;;;;5052214;28;20217;-68
2021/04/08 08:25:14;;;;;;;16.07;12.27;;;6.00;99.90;;;;;;5046645;28;20288;-67
2021/04/08 08:27:43;;;;;;;13.13;10.63;;;6.00;99.90;;;;;;5051767;28;20206;-65
2021/04/08 08:30:12;;;;;;;14.60;10.33;;;5.90;99.90;;;;;;5051463;28;20272;-65
2021/04/08 08:32:39;;;;;;;12.83;9.43;;;5.90;99.90;;;;;;5048252;28;20201;-65
2021/04/08 08:35:06;;;;;;;9.67;7.83;;;5.80;99.90;;;;;;5054634;28;20703;-66
2021/04/08 08:37:34;;;;;;;9.73;7.23;;;5.70;99.90;;;;;;5054851;28;20280;-68
2021/04/08 08:40:01;;;;;;;8.70;7.47;;;5.60;99.90;;;;;;5052487;28;20716;-67
2021/04/08 08:42:28;;;;;;;8.90;7.57;;;5.70;99.90;;;;;;5054268;28;20209;-66
2021/04/08 08:44:56;;;;;;;10.03;7.47;;;5.60;99.90;;;;;;5055787;28;20663;-65
2021/04/08 08:47:26;;;;;;;9.97;7.83;;;5.60;99.90;;;;;;5047417;28;20213;-65
2021/04/08 08:49:58;;;;;;;8.70;7.30;;;5.50;99.90;;;;;;5054253;28;20222;-66
2021/04/08 08:52:26;;;;;;;10.13;7.83;;;5.40;99.90;;;;;;5053925;28;20240;-65
2021/04/08 08:54:53;;;;;;;10.60;8.10;;;5.30;99.90;;;;;;5052572;28;20202;-65
2021/04/08 08:57:21;;;;;;;12.30;9.20;;;5.20;99.90;;;;;;5054355;28;20260;-66
2021/04/08 08:59:49;;;;;;;11.03;9.00;;;5.20;99.90;;;;;;5053855;28;20288;-66
2021/04/08 09:02:17;;;;;;;11.90;9.27;;;5.20;99.90;;;;;;5051890;28;20206;-64
2021/04/08 09:04:43;;;;;;;12.10;9.53;;;5.40;99.90;;;;;;5057289;28;20205;-65
2021/04/08 09:07:13;;;;;;;13.47;10.00;;;6.00;99.90;;;;;;5061766;28;20731;-67
2021/04/08 09:09:45;;;;;;;12.70;9.77;;;6.50;99.90;;;;;;5051344;28;20233;-65
2021/04/08 09:12:18;;;;;;;12.13;8.97;;;7.10;99.90;;;;;;5053082;28;20221;-69
2021/04/08 09:14:46;;;;;;;12.17;9.20;;;7.60;99.90;;;;;;5051401;28;20230;-65
2021/04/08 09:17:13;;;;;;;11.30;8.97;;;8.10;99.90;;;;;;5055227;28;20215;-66
2021/04/08 09:19:40;;;;;;;10.80;8.80;;;8.60;99.90;;;;;;5042007;28;20685;-65
2021/04/08 09:22:08;;;;;;;14.07;9.60;;;9.20;99.90;;;;;;5040966;28;20210;-66
2021/04/08 09:24:40;;;;;;;11.40;9.30;;;9.80;99.90;;;;;;5053084;28;20213;-66
2021/04/08 09:27:08;;;;;;;10.57;8.80;;;10.10;99.90;;;;;;5048580;28;20210;-66
2021/04/08 09:29:49;;;;;;;10.13;7.33;;;10.10;99.90;;;;;;5053797;28;20237;-66
2021/04/08 09:32:31;;;;;;;7.87;7.03;;;9.80;99.90;;;;;;5052669;28;20565;-69
2021/04/08 09:35:15;;;;;;;8.80;6.73;;;9.50;99.90;;;;;;5056232;28;20608;-70
2021/04/08 09:38:13;;;;;;;7.80;6.47;;;9.10;99.90;;;;;;5051589;28;20647;-70
2021/04/08 09:40:50;;;;;;;8.93;6.23;;;8.70;99.90;;;;;;5052127;28;20202;-69
2021/04/08 09:43:18;;;;;;;8.43;6.60;;;8.30;99.90;;;;;;5054138;28;20712;-68
2021/04/08 09:45:48;;;;;;;6.17;4.87;;;8.00;99.90;;;;;;5051697;28;20268;-69
2021/04/08 09:48:18;;;;;;;5.10;4.57;;;7.90;99.90;;;;;;5050010;28;20285;-69
2021/04/08 09:50:46;;;;;;;5.70;4.60;;;7.70;99.90;;;;;;5055893;28;20198;-68
2021/04/08 09:53:12;;;;;;;5.67;4.67;;;7.60;99.90;;;;;;5057103;28;20897;-69
2021/04/08 09:55:41;;;;;;;5.13;4.57;;;7.50;99.90;;;;;;5047707;28;20662;-69
2021/04/08 09:58:09;;;;;;;5.27;4.33;;;7.40;99.90;;;;;;5056071;28;20209;-70
2021/04/08 10:00:37;;;;;;;5.60;4.47;;;7.60;99.90;;;;;;5060752;28;20707;-69
2021/04/08 10:03:05;;;;;;;6.43;4.63;;;8.00;99.90;;;;;;5056338;28;20288;-69
2021/04/08 10:05:33;;;;;;;5.00;4.37;;;8.50;99.90;;;;;;5054627;28;20202;-68
2021/04/08 10:08:00;;;;;;;5.07;4.37;;;9.10;99.90;;;;;;5053666;28;20292;-68
2021/04/08 10:10:41;;;;;;;5.13;4.63;;;9.50;99.90;;;;;;5055343;28;20320;-66
2021/04/08 10:13:25;;;;;;;4.63;3.90;;;9.70;99.90;;;;;;5048569;28;20209;-69
2021/04/08 10:15:53;;;;;;;5.77;4.27;;;10.10;99.90;;;;;;5052776;28;20256;-70
2021/04/08 10:18:22;;;;;;;5.23;3.80;;;10.30;99.90;;;;;;5049307;28;20263;-67
2021/04/08 10:20:52;;;;;;;3.43;3.13;;;10.50;99.90;;;;;;5055654;28;20205;-68
2021/04/08 10:23:36;;;;;;;3.77;3.00;;;10.40;99.90;;;;;;5053125;28;20703;-69
2021/04/08 10:26:04;;;;;;;4.07;3.37;;;10.00;99.90;;;;;;5053163;28;20208;-69
2021/04/08 10:28:40;;;;;;;5.07;3.50;;;9.40;99.90;;;;;;5057696;28;20205;-68
2021/04/08 10:31:17;;;;;;;4.53;3.07;;;8.80;99.90;;;;;;5056526;28;20650;-68
2021/04/08 10:33:43;;;;;;;4.50;3.20;;;8.40;99.90;;;;;;5051036;28;20288;-68
2021/04/08 10:36:10;;;;;;;7.30;3.30;;;8.00;99.90;;;;;;5057614;28;20296;-69
2021/04/08 10:38:37;;;;;;;4.50;3.77;;;7.70;99.90;;;;;;5048257;28;20202;-68
2021/04/08 10:41:04;;;;;;;5.63;3.93;;;7.40;99.90;;;;;;5050020;28;20294;-68
2021/04/08 10:43:30;;;;;;;4.20;3.47;;;7.30;99.90;;;;;;5051490;28;20235;-68
2021/04/08 10:45:59;;;;;;;6.03;3.87;;;7.10;99.90;;;;;;5054038;28;20213;-67
2021/04/08 10:48:27;;;;;;;5.47;4.10;;;6.90;99.90;;;;;;5053402;28;20253;-68
2021/04/08 10:50:55;;;;;;;8.07;4.57;;;6.70;99.90;;;;;;5052680;28;20633;-68
2021/04/08 10:53:25;;;;;;;4.47;4.00;;;6.60;99.90;;;;;;5053280;28;20249;-67
2021/04/08 10:55:53;;;;;;;7.07;4.40;;;6.50;99.90;;;;;;5050958;28;20205;-69
2021/04/08 10:58:25;;;;;;;7.43;4.77;;;6.70;99.90;;;;;;5053660;28;20202;-68
2021/04/08 11:00:51;;;;;;;7.90;5.00;;;7.00;99.90;;;;;;5055972;28;20233;-68
2021/04/08 11:03:19;;;;;;;5.33;4.70;;;7.60;99.90;;;;;;5054969;28;20293;-69
2021/04/08 11:05:45;;;;;;;6.80;5.13;;;7.90;99.90;;;;;;5050066;28;20289;-67
2021/04/08 11:08:12;;;;;;;7.80;5.17;;;8.20;99.90;;;;;;5053411;28;20210;-67
2021/04/08 11:10:38;;;;;;;5.00;4.03;;;8.40;99.90;;;;;;5056982;28;20312;-68
2021/04/08 11:13:06;;;;;;;7.03;5.07;;;8.70;99.90;;;;;;5052920;28;20347;-69
2021/04/08 11:15:33;;;;;;;7.07;4.90;;;9.10;99.90;;;;;;5052169;28;20257;-67
2021/04/08 11:18:02;;;;;;;6.80;4.53;;;9.70;99.90;;;;;;5053303;28;20213;-68
2021/04/08 11:20:32;;;;;;;9.33;4.30;;;10.40;99.90;;;;;;5060383;28;20714;-66
2021/04/08 11:22:59;;;;;;;6.23;4.33;;;11.00;99.90;;;;;;5053067;28;20214;-68
2021/04/08 11:25:27;;;;;;;5.07;4.00;;;11.60;99.90;;;;;;5051753;28;20657;-67
2021/04/08 11:27:55;;;;;;;5.40;4.07;;;12.10;99.60;;;;;;5053073;28;20252;-69
2021/04/08 11:30:25;;;;;;;4.50;3.97;;;12.30;96.90;;;;;;5054958;28;20691;-69
2021/04/08 11:32:54;;;;;;;5.03;3.70;;;12.40;95.10;;;;;;5051032;28;20233;-69
2021/04/08 11:35:26;;;;;;;4.20;3.50;;;12.70;93.90;;;;;;5053343;28;20213;-70
2021/04/08 11:38:06;;;;;;;4.10;3.40;;;13.10;92.30;;;;;;5054044;28;20295;-69
2021/04/08 11:40:32;;;;;;;4.57;3.17;;;13.50;84.60;;;;;;5050929;28;20212;-70
2021/04/08 11:42:58;;;;;;;3.57;2.83;;;13.60;83.10;;;;;;5053692;28;20555;-71
2021/04/08 11:45:28;;;;;;;3.97;3.57;;;13.70;77.70;;;;;;5053809;28;20301;-70
2021/04/08 11:47:56;;;;;;;3.80;3.27;;;13.80;72.80;;;;;;5053120;28;20297;-68
2021/04/08 11:50:26;;;;;;;5.53;3.60;;;14.00;74.10;;;;;;5059685;28;20563;-69
2021/04/08 11:53:05;;;;;;;6.53;3.73;;;13.90;70.40;;;;;;5034682;28;20261;-68
2021/04/08 11:55:40;;;;;;;3.57;3.20;;;13.60;68.90;;;;;;5052778;28;20586;-71
2021/04/08 11:58:08;;;;;;;4.73;3.40;;;13.20;70.20;;;;;;5051649;28;20305;-70
2021/04/08 12:00:36;;;;;;;3.47;2.77;;;13.10;72.90;;;;;;5048712;28;20213;-68
2021/04/08 12:03:19;;;;;;;3.93;2.90;;;13.00;72.90;;;;;;5056994;28;20723;-68
2021/04/08 12:05:46;;;;;;;4.07;3.03;;;12.80;72.40;;;;;;5053973;28;20206;-69
2021/04/08 12:08:13;;;;;;;4.60;3.17;;;12.40;71.90;;;;;;5047656;28;20217;-70
2021/04/08 12:10:41;;;;;;;3.27;2.80;;;12.10;74.30;;;;;;5047337;28;20225;-70
2021/04/08 12:13:10;;;;;;;5.37;3.50;;;11.90;75.00;;;;;;5050228;28;20702;-71
2021/04/08 12:15:42;;;;;;;3.87;2.90;;;11.50;74.20;;;;;;5047251;28;20236;-72
2021/04/08 12:18:17;;;;;;;4.60;3.07;;;11.10;75.90;;;;;;5054279;28;20214;-68
2021/04/08 12:20:44;;;;;;;3.93;3.10;;;10.90;77.60;;;;;;5051518;28;20229;-66
2021/04/08 12:23:12;;;;;;;3.47;2.77;;;10.70;77.40;;;;;;5048790;28;20206;-71
2021/04/08 12:25:44;;;;;;;4.60;3.13;;;10.60;78.20;;;;;;5048668;28;20259;-67
2021/04/08 12:28:11;;;;;;;3.93;3.43;;;10.80;83.30;;;;;;5050722;28;20216;-67
2021/04/08 12:30:45;;;;;;;3.73;3.20;;;11.30;82.10;;;;;;5058312;28;20226;-66
2021/04/08 12:33:16;;;;;;;3.97;3.13;;;11.90;82.50;;;;;;5056887;28;20272;-67
2021/04/08 12:35:43;;;;;;;5.90;3.20;;;12.40;76.90;;;;;;5051633;28;20198;-67
2021/04/08 12:38:09;;;;;;;4.20;2.40;;;12.60;74.00;;;;;;5057107;28;20216;-68
2021/04/08 12:40:36;;;;;;;3.90;3.10;;;12.50;72.20;;;;;;5056286;28;20205;-67
2021/04/08 12:43:04;;;;;;;5.27;2.40;;;12.10;71.70;;;;;;5060565;28;20305;-67
2021/04/08 12:45:30;;;;;;;3.60;2.67;;;11.70;72.80;;;;;;5054007;28;20660;-67
2021/04/08 12:47:57;;;;;;;3.07;2.47;;;11.30;74.20;;;;;;5049559;28;20259;-68
2021/04/08 12:50:23;;;;;;;4.73;3.10;;;11.00;75.70;;;;;;5053976;28;20214;-67
2021/04/08 12:52:49;;;;;;;3.47;2.80;;;10.60;78.30;;;;;;5053394;28;20214;-66